Time;durP1;ratioP1;P1;durP2;ratioP2;P2;SDS_P1;SDS_P2;PMS_P1;PMS_P2;Temp;Humidity;BMP_temperature;BMP_pressure;BME280_temperature;BME280_humidity;BME280_pressure;Samples;Min_cycle;Max_cycle;Signal;HPM_P1;HPM_P2
2023/05/30 00:01:54;;;;;;;9.07;2.17;;;;;;;-144.85;100.00;61331.59;5114944;28;34758;-73
2023/05/30 00:04:23;;;;;;;13.63;2.72;;;;;;;-144.85;100.00;61331.59;5103597;28;31495;-74
2023/05/30 00:06:51;;;;;;;8.75;2.03;;;;;;;-144.85;100.00;61331.59;5085928;28;32996;-73
2023/05/30 00:09:19;;;;;;;9.35;2.08;;;;;;;-144.85;100.00;61331.59;5098354;28;32054;-73
2023/05/30 00:11:48;;;;;;;10.13;2.22;;;;;;;-144.85;100.00;61331.59;5096202;28;31759;-74
2023/05/30 00:14:20;;;;;;;11.38;2.40;;;;;;;-144.85;100.00;61331.59;5102086;28;30266;-74
2023/05/30 00:16:47;;;;;;;10.90;2.47;;;;;;;-144.85;100.00;61331.59;5097982;28;33189;-73
2023/05/30 00:19:15;;;;;;;13.70;2.83;;;;;;;-144.85;100.00;61331.59;5083657;28;30601;-74
2023/05/30 00:21:42;;;;;;;11.82;2.47;;;;;;;-144.85;100.00;61331.59;5103372;28;31763;-73
2023/05/30 00:24:11;;;;;;;10.43;2.78;;;;;;;-144.85;100.00;61331.59;5098716;28;31674;-73
2023/05/30 00:26:38;;;;;;;9.18;2.28;;;;;;;-144.85;100.00;61331.59;5101132;28;32331;-73
2023/05/30 00:29:05;;;;;;;13.48;2.72;;;;;;;-144.85;100.00;61331.59;5093574;28;32005;-73
2023/05/30 00:31:32;;;;;;;16.55;2.47;;;;;;;-144.85;100.00;61331.59;5063371;28;31030;-73
2023/05/30 00:34:00;;;;;;;14.52;2.72;;;;;;;-144.85;100.00;61331.59;5081766;28;31862;-73
2023/05/30 00:36:27;;;;;;;9.95;2.45;;;;;;;-144.85;100.00;61331.59;5103044;28;32525;-73
2023/05/30 00:38:54;;;;;;;17.73;2.40;;;;;;;-144.85;100.00;61331.59;5104749;28;32173;-73
2023/05/30 00:41:21;;;;;;;12.75;2.65;;;;;;;-144.85;100.00;61331.59;5098274;28;31048;-73
2023/05/30 00:43:48;;;;;;;16.35;2.35;;;;;;;-144.85;100.00;61331.59;5079962;28;30438;-73
2023/05/30 00:46:16;;;;;;;15.45;2.42;;;;;;;-144.85;100.00;61331.59;5090084;28;32554;-73
2023/05/30 00:48:43;;;;;;;11.93;2.45;;;;;;;-144.85;100.00;61331.59;5067240;28;31181;-73
2023/05/30 00:51:11;;;;;;;19.02;2.65;;;;;;;-144.85;100.00;61331.59;5089564;28;32444;-73
2023/05/30 00:53:41;;;;;;;10.25;2.60;;;;;;;-144.85;100.00;61331.59;5090217;28;31330;-73
2023/05/30 00:56:10;;;;;;;11.73;2.70;;;;;;;-144.85;100.00;61331.59;5051289;28;31589;-73
2023/05/30 00:58:38;;;;;;;13.23;2.22;;;;;;;-144.85;100.00;61331.59;5095204;28;33244;-73
2023/05/30 01:01:06;;;;;;;12.52;2.30;;;;;;;-144.85;100.00;61331.59;5101454;28;31701;-73
2023/05/30 01:03:34;;;;;;;12.45;2.95;;;;;;;-144.85;100.00;61331.59;5079327;28;31830;-73
2023/05/30 01:06:03;;;;;;;11.23;2.45;;;;;;;-144.85;100.00;61331.59;5103286;28;33396;-73
2023/05/30 01:08:30;;;;;;;8.27;2.45;;;;;;;-144.85;100.00;61331.59;5097758;28;33085;-73
2023/05/30 01:11:15;;;;;;;10.07;2.40;;;;;;;-144.85;100.00;61331.59;5075648;28;30931;-73
2023/05/30 01:14:10;;;;;;;14.50;2.53;;;;;;;-144.85;100.00;61331.59;5096444;28;31978;-73
2023/05/30 01:16:42;;;;;;;12.13;2.85;;;;;;;-144.85;100.00;61331.59;5089485;28;32292;-73
2023/05/30 01:19:23;;;;;;;13.60;2.47;;;;;;;-144.85;100.00;61331.59;5085690;28;32477;-73
2023/05/30 01:21:59;;;;;;;9.07;2.53;;;;;;;-144.85;100.00;61331.59;5066770;28;31414;-73
2023/05/30 01:24:44;;;;;;;8.57;2.38;;;;;;;-144.85;100.00;61331.59;5082976;28;32555;-73
2023/05/30 01:27:28;;;;;;;9.63;2.28;;;;;;;-144.85;100.00;61331.59;5075383;28;32898;-73
2023/05/30 01:29:56;;;;;;;16.73;2.75;;;;;;;-144.85;100.00;61331.59;5082060;28;32233;-73
2023/05/30 01:32:24;;;;;;;14.20;3.03;;;;;;;-144.85;100.00;61331.59;5078957;28;31244;-73
2023/05/30 01:34:53;;;;;;;9.48;2.00;;;;;;;-144.85;100.00;61331.59;5084473;28;30522;-73
2023/05/30 01:37:20;;;;;;;13.73;2.80;;;;;;;-144.85;100.00;61331.59;5079497;28;32556;-73
2023/05/30 01:39:47;;;;;;;14.57;3.10;;;;;;;-144.85;100.00;61331.59;5102350;28;32263;-73
2023/05/30 01:42:20;;;;;;;12.77;3.08;;;;;;;-144.85;100.00;61331.59;5081611;28;30978;-73
2023/05/30 01:44:58;;;;;;;13.73;2.70;;;;;;;-144.85;100.00;61331.59;5083878;28;31613;-73
2023/05/30 01:47:28;;;;;;;14.93;2.80;;;;;;;-144.85;100.00;61331.59;5057443;28;33024;-73
2023/05/30 01:50:09;;;;;;;10.15;2.53;;;;;;;-144.85;100.00;61331.59;5078601;28;30962;-73
2023/05/30 01:52:40;;;;;;;10.93;2.40;;;;;;;-144.85;100.00;61331.59;5076942;28;32001;-73
2023/05/30 01:55:10;;;;;;;14.80;2.80;;;;;;;-144.85;100.00;61331.59;5097679;28;31255;-73
2023/05/30 01:57:46;;;;;;;11.40;2.70;;;;;;;-144.85;100.00;61331.59;5091159;28;31349;-73
2023/05/30 02:00:16;;;;;;;8.63;2.63;;;;;;;-144.85;100.00;61331.59;5060806;28;34083;-73
2023/05/30 02:02:44;;;;;;;13.32;2.97;;;;;;;-144.85;100.00;61331.59;5094978;28;32180;-73
2023/05/30 02:05:12;;;;;;;16.27;3.40;;;;;;;-144.85;100.00;61331.59;5101179;28;31646;-73
2023/05/30 02:07:39;;;;;;;12.40;2.90;;;;;;;-144.85;100.00;61331.59;5094732;28;33598;-73
2023/05/30 02:10:07;;;;;;;12.38;2.80;;;;;;;-144.85;100.00;61331.59;5067577;28;31254;-73
2023/05/30 02:12:35;;;;;;;13.25;2.72;;;;;;;-144.85;100.00;61331.59;5074814;28;30836;-73
2023/05/30 02:15:03;;;;;;;12.00;2.60;;;;;;;-144.85;100.00;61331.59;5060792;28;30546;-73
2023/05/30 02:17:31;;;;;;;11.88;2.75;;;;;;;-144.85;100.00;61331.59;5083160;28;31469;-73
2023/05/30 02:19:59;;;;;;;15.05;3.30;;;;;;;-144.85;100.00;61331.59;5068035;28;32198;-73
2023/05/30 02:22:26;;;;;;;7.25;2.67;;;;;;;-144.85;100.00;61331.59;5084187;28;31896;-73
2023/05/30 02:24:55;;;;;;;14.50;3.28;;;;;;;-144.85;100.00;61331.59;5099051;28;32250;-73
2023/05/30 02:27:24;;;;;;;11.93;2.70;;;;;;;-144.85;100.00;61331.59;5092856;28;32303;-73
2023/05/30 02:29:53;;;;;;;14.15;2.95;;;;;;;-144.85;100.00;61331.59;5064702;28;31251;-73
2023/05/30 02:32:20;;;;;;;9.45;2.90;;;;;;;-144.85;100.00;61331.59;5086301;28;30665;-73
2023/05/30 02:34:47;;;;;;;14.50;3.33;;;;;;;-144.85;100.00;61331.59;5082763;28;31606;-73
2023/05/30 02:37:15;;;;;;;11.02;2.90;;;;;;;-144.85;100.00;61331.59;5081415;28;32721;-73
2023/05/30 02:39:42;;;;;;;16.13;2.58;;;;;;;-144.85;100.00;61331.59;5096724;28;32615;-73
2023/05/30 02:42:09;;;;;;;15.68;3.00;;;;;;;-144.85;100.00;61331.59;5080455;28;30822;-73
2023/05/30 02:44:36;;;;;;;10.00;3.03;;;;;;;-144.85;100.00;61331.59;5081016;28;30406;-73
2023/05/30 02:47:04;;;;;;;10.88;2.65;;;;;;;-144.85;100.00;61331.59;5080897;28;31997;-73
2023/05/30 02:49:31;;;;;;;12.48;2.88;;;;;;;-144.85;100.00;61331.59;5061399;28;31344;-73
2023/05/30 02:51:59;;;;;;;10.85;2.75;;;;;;;-144.85;100.00;61331.59;5081333;28;30213;-73
2023/05/30 02:54:31;;;;;;;13.40;2.92;;;;;;;-144.85;100.00;61331.59;5077246;28;31633;-73
2023/05/30 02:57:34;;;;;;;12.40;2.80;;;;;;;-144.85;100.00;61331.59;5104142;28;32280;-73
2023/05/30 03:00:09;;;;;;;12.93;3.10;;;;;;;-144.85;100.00;61331.59;5083820;28;32331;-73
2023/05/30 03:02:37;;;;;;;11.63;2.85;;;;;;;-144.85;100.00;61331.59;5075153;28;31945;-73
2023/05/30 03:05:09;;;;;;;11.55;2.80;;;;;;;-144.85;100.00;61331.59;5081197;28;30567;-73
2023/05/30 03:07:38;;;;;;;16.25;3.08;;;;;;;-144.85;100.00;61331.59;5067288;28;20552;-74
2023/05/30 03:10:07;;;;;;;12.63;2.85;;;;;;;-144.85;100.00;61331.59;5079083;28;32136;-73
2023/05/30 03:12:36;;;;;;;13.60;3.00;;;;;;;-144.85;100.00;61331.59;5084977;28;31544;-72
2023/05/30 03:15:07;;;;;;;11.02;2.67;;;;;;;-144.85;100.00;61331.59;5070420;28;31574;-74
2023/05/30 03:17:35;;;;;;;13.52;3.17;;;;;;;-144.85;100.00;61331.59;5112302;27;32180;-74
2023/05/30 03:20:06;;;;;;;7.90;2.88;;;;;;;-144.85;100.00;61331.59;5076581;28;31732;-74
2023/05/30 03:22:34;;;;;;;10.27;3.20;;;;;;;-144.85;100.00;61331.59;5060511;28;31262;-73
2023/05/30 03:25:03;;;;;;;12.80;3.47;;;;;;;-144.85;100.00;61331.59;5074775;28;30453;-73
2023/05/30 03:27:31;;;;;;;10.85;3.08;;;;;;;-144.85;100.00;61331.59;5076382;28;31427;-73
2023/05/30 03:29:59;;;;;;;11.10;3.22;;;;;;;-144.85;100.00;61331.59;5060015;28;32747;-73
2023/05/30 03:32:26;;;;;;;9.60;2.75;;;;;;;-144.85;100.00;61331.59;5067111;28;31718;-73
2023/05/30 03:34:54;;;;;;;11.98;3.28;;;;;;;-144.85;100.00;61331.59;5076820;28;31781;-73
2023/05/30 03:37:25;;;;;;;10.07;3.22;;;;;;;-144.85;100.00;61331.59;5075387;28;31707;-73
2023/05/30 03:39:52;;;;;;;8.50;3.17;;;;;;;-144.85;100.00;61331.59;5094115;28;33170;-73
2023/05/30 03:42:21;;;;;;;14.95;3.80;;;;;;;-144.85;100.00;61331.59;5090272;28;30930;-73
2023/05/30 03:44:48;;;;;;;15.43;3.25;;;;;;;-144.85;100.00;61331.59;5097194;28;31587;-73
2023/05/30 03:47:15;;;;;;;12.90;3.45;;;;;;;-144.85;100.00;61331.59;5083584;28;31832;-73
2023/05/30 03:49:42;;;;;;;13.30;3.65;;;;;;;-144.85;100.00;61331.59;5075453;28;31436;-73
2023/05/30 03:52:10;;;;;;;11.43;3.25;;;;;;;-144.85;100.00;61331.59;5092581;28;30960;-73
2023/05/30 03:54:37;;;;;;;15.25;3.00;;;;;;;-144.85;100.00;61331.59;5079634;28;31323;-73
2023/05/30 03:57:05;;;;;;;9.90;3.30;;;;;;;-144.85;100.00;61331.59;5103455;28;33480;-73
2023/05/30 03:59:32;;;;;;;16.33;3.58;;;;;;;-144.85;100.00;61331.59;5084415;28;30839;-73
2023/05/30 04:02:00;;;;;;;12.25;3.53;;;;;;;-144.85;100.00;61331.59;5075940;28;30926;-73
2023/05/30 04:04:27;;;;;;;12.77;3.20;;;;;;;-144.85;100.00;61331.59;5078513;28;30194;-73
2023/05/30 04:06:54;;;;;;;13.65;3.40;;;;;;;-144.85;100.00;61331.59;5081737;28;32329;-73
2023/05/30 04:09:21;;;;;;;14.50;3.05;;;;;;;-144.85;100.00;61331.59;5081430;28;32627;-73
2023/05/30 04:11:48;;;;;;;14.00;3.25;;;;;;;-144.85;100.00;61331.59;5070089;28;32040;-73
2023/05/30 04:14:15;;;;;;;11.38;3.10;;;;;;;-144.85;100.00;61331.59;5091140;28;30360;-73
2023/05/30 04:16:43;;;;;;;12.00;4.00;;;;;;;-144.85;100.00;61331.59;5100769;28;33468;-73
2023/05/30 04:19:10;;;;;;;9.68;2.88;;;;;;;-144.85;100.00;61331.59;5078608;28;32133;-73
2023/05/30 04:21:37;;;;;;;13.63;3.53;;;;;;;-144.85;100.00;61331.59;5088543;28;30744;-73
2023/05/30 04:24:07;;;;;;;10.52;3.70;;;;;;;-144.85;100.00;61331.59;5105239;28;32526;-73
2023/05/30 04:26:36;;;;;;;13.85;3.50;;;;;;;-144.85;100.00;61331.59;5086210;28;31396;-73
2023/05/30 04:29:04;;;;;;;14.15;3.70;;;;;;;-144.85;100.00;61331.59;5081026;28;31157;-73
2023/05/30 04:31:32;;;;;;;16.10;3.40;;;;;;;-144.85;100.00;61331.59;5082593;28;30950;-73
2023/05/30 04:34:00;;;;;;;12.77;3.70;;;;;;;-144.85;100.00;61331.59;5065956;28;30827;-73
2023/05/30 04:36:27;;;;;;;11.00;3.17;;;;;;;-144.85;100.00;61331.59;5063480;28;33131;-73
2023/05/30 04:38:55;;;;;;;17.25;3.53;;;;;;;-144.85;100.00;61331.59;5101601;28;32678;-73
2023/05/30 04:41:24;;;;;;;10.60;3.75;;;;;;;-144.85;100.00;61331.59;5079927;28;30816;-73
2023/05/30 04:43:57;;;;;;;13.13;3.75;;;;;;;-144.85;100.00;61331.59;5079844;28;32101;-74
2023/05/30 04:46:27;;;;;;;11.95;3.40;;;;;;;-144.85;100.00;61331.59;5078155;28;32536;-73
2023/05/30 04:49:00;;;;;;;11.27;3.33;;;;;;;-144.85;100.00;61331.59;5071496;28;31030;-73
2023/05/30 04:51:29;;;;;;;12.82;3.40;;;;;;;-144.85;100.00;61331.59;5078052;28;30827;-73
2023/05/30 04:53:56;;;;;;;12.95;3.63;;;;;;;-144.85;100.00;61331.59;5097537;28;32252;-73
2023/05/30 04:56:23;;;;;;;14.82;3.20;;;;;;;-144.85;100.00;61331.59;5105155;28;32506;-73
2023/05/30 04:58:53;;;;;;;11.48;3.42;;;;;;;-144.85;100.00;61331.59;5085191;28;30888;-73
2023/05/30 05:01:23;;;;;;;13.50;3.50;;;;;;;-144.85;100.00;61331.59;5079451;28;31788;-73
2023/05/30 05:03:51;;;;;;;13.70;3.33;;;;;;;-144.85;100.00;61331.59;5074338;28;30356;-73
2023/05/30 05:06:19;;;;;;;11.52;3.40;;;;;;;-144.85;100.00;61331.59;5095469;28;32225;-73
2023/05/30 05:08:47;;;;;;;14.60;3.25;;;;;;;-144.85;100.00;61331.59;5098259;28;32304;-73
2023/05/30 05:11:14;;;;;;;11.77;3.45;;;;;;;-144.85;100.00;61331.59;5071821;28;32130;-73
2023/05/30 05:13:41;;;;;;;12.75;3.40;;;;;;;-144.85;100.00;61331.59;5097994;28;32013;-73
2023/05/30 05:16:08;;;;;;;10.63;3.67;;;;;;;-144.85;100.00;61331.59;5105478;28;32332;-74
2023/05/30 05:18:36;;;;;;;12.05;3.60;;;;;;;-144.85;100.00;61331.59;5109688;28;32229;-74
2023/05/30 05:21:04;;;;;;;13.95;3.65;;;;;;;-144.85;100.00;61331.59;5083494;28;31733;-74
2023/05/30 05:23:31;;;;;;;11.60;3.95;;;;;;;-144.85;100.00;61331.59;5100341;28;31554;-74
2023/05/30 05:26:00;;;;;;;15.20;3.90;;;;;;;-144.85;100.00;61331.59;5099390;28;32428;-71
2023/05/30 05:28:27;;;;;;;17.90;3.58;;;;;;;-144.85;100.00;61331.59;5069516;28;31443;-71
2023/05/30 05:30:54;;;;;;;15.77;3.95;;;;;;;-144.85;100.00;61331.59;5092056;28;31935;-72
2023/05/30 05:33:21;;;;;;;12.30;3.67;;;;;;;-144.85;100.00;61331.59;5089566;28;31389;-71
2023/05/30 05:35:49;;;;;;;12.32;3.83;;;;;;;-144.85;100.00;61331.59;5095195;28;32818;-71
2023/05/30 05:38:16;;;;;;;13.60;3.80;;;;;;;-144.85;100.00;61331.59;5099780;28;32046;-71
2023/05/30 05:40:43;;;;;;;13.45;4.00;;;;;;;-144.85;100.00;61331.59;5102561;28;32297;-71
2023/05/30 05:43:11;;;;;;;17.58;4.30;;;;;;;-144.85;100.00;61331.59;5101486;28;31875;-71
2023/05/30 05:45:38;;;;;;;13.75;4.18;;;;;;;-144.85;100.00;61331.59;5064057;28;31030;-71
2023/05/30 05:48:06;;;;;;;14.73;4.40;;;;;;;-144.85;100.00;61331.59;5098854;28;31711;-71
2023/05/30 05:50:33;;;;;;;11.05;4.43;;;;;;;-144.85;100.00;61331.59;5101240;28;32840;-72
2023/05/30 05:53:00;;;;;;;9.95;3.80;;;;;;;-144.85;100.00;61331.59;5082954;28;30325;-72
2023/05/30 05:55:27;;;;;;;13.48;4.10;;;;;;;-144.85;100.00;61331.59;5079023;28;32398;-72
2023/05/30 05:57:54;;;;;;;13.32;3.83;;;;;;;-144.85;100.00;61331.59;5096882;28;32263;-71
2023/05/30 06:00:25;;;;;;;10.18;4.13;;;;;;;-144.85;100.00;61331.59;5066692;28;30858;-71
2023/05/30 06:02:52;;;;;;;11.50;4.15;;;;;;;-144.85;100.00;61331.59;5079461;28;31413;-71
2023/05/30 06:05:19;;;;;;;10.30;4.25;;;;;;;-144.85;100.00;61331.59;5097112;28;32439;-72
2023/05/30 06:07:46;;;;;;;9.85;3.80;;;;;;;-144.85;100.00;61331.59;5086829;28;32253;-71
2023/05/30 06:10:14;;;;;;;9.80;4.47;;;;;;;-144.85;100.00;61331.59;5097343;28;31871;-71
2023/05/30 06:12:41;;;;;;;12.90;4.22;;;;;;;-144.85;100.00;61331.59;5062234;28;31733;-71
2023/05/30 06:15:09;;;;;;;11.00;4.38;;;;;;;-144.85;100.00;61331.59;5098196;28;32459;-71
2023/05/30 06:17:36;;;;;;;13.95;4.30;;;;;;;-144.85;100.00;61331.59;5098200;28;31825;-72
2023/05/30 06:20:03;;;;;;;9.23;4.22;;;;;;;-144.85;100.00;61331.59;5078085;28;31789;-72
2023/05/30 06:22:31;;;;;;;14.45;4.53;;;;;;;-144.85;100.00;61331.59;5098828;28;31465;-72
2023/05/30 06:24:58;;;;;;;10.52;4.38;;;;;;;-144.85;100.00;61331.59;5078620;28;31836;-72
2023/05/30 06:27:25;;;;;;;12.05;4.18;;;;;;;-144.85;100.00;61331.59;5097175;28;32750;-72
2023/05/30 06:29:53;;;;;;;14.60;5.78;;;;;;;-144.85;100.00;61331.59;5096874;28;32026;-72
2023/05/30 06:32:20;;;;;;;9.23;4.55;;;;;;;-144.85;100.00;61331.59;5062257;28;31888;-72
2023/05/30 06:34:47;;;;;;;12.27;4.93;;;;;;;-144.85;100.00;61331.59;5108610;28;33731;-72
2023/05/30 06:37:15;;;;;;;12.10;4.63;;;;;;;-144.85;100.00;61331.59;5083282;28;32156;-72
2023/05/30 06:39:42;;;;;;;12.43;4.57;;;;;;;-144.85;100.00;61331.59;5080946;28;31853;-72
2023/05/30 06:42:10;;;;;;;13.40;4.30;;;;;;;-144.85;100.00;61331.59;5079172;28;30512;-72
2023/05/30 06:44:43;;;;;;;12.38;4.95;;;;;;;-144.85;100.00;61331.59;5046399;28;31403;-72
2023/05/30 06:47:10;;;;;;;11.65;4.38;;;;;;;-144.85;100.00;61331.59;5079425;28;33227;-72
2023/05/30 06:49:37;;;;;;;14.35;5.45;;;;;;;-144.85;100.00;61331.59;5065252;28;30742;-73
2023/05/30 06:52:05;;;;;;;10.18;3.95;;;;;;;-144.85;100.00;61331.59;5078854;28;30389;-72
2023/05/30 06:54:32;;;;;;;12.40;4.40;;;;;;;-144.85;100.00;61331.59;5060677;28;33400;-72
2023/05/30 06:57:02;;;;;;;11.38;4.57;;;;;;;-144.85;100.00;61331.59;5085718;28;32539;-74
2023/05/30 06:59:31;;;;;;;12.15;4.93;;;;;;;-144.85;100.00;61331.59;5093633;28;31335;-73
2023/05/30 07:01:59;;;;;;;13.23;4.75;;;;;;;-144.85;100.00;61331.59;5078533;28;32646;-74
2023/05/30 07:04:26;;;;;;;11.15;4.20;;;;;;;-144.85;100.00;61331.59;5094506;28;32690;-73
2023/05/30 07:06:54;;;;;;;10.77;4.65;;;;;;;-144.85;100.00;61331.59;5063443;28;31981;-73
2023/05/30 07:09:22;;;;;;;13.05;4.57;;;;;;;-144.85;100.00;61331.59;5077595;28;32145;-73
2023/05/30 07:11:51;;;;;;;11.48;4.80;;;;;;;-144.85;100.00;61331.59;5065884;28;30248;-74
2023/05/30 07:14:19;;;;;;;10.43;4.60;;;;;;;-144.85;100.00;61331.59;5093369;28;32384;-72
2023/05/30 07:16:46;;;;;;;11.55;4.68;;;;;;;-144.85;100.00;61331.59;5085781;28;31750;-73
2023/05/30 07:19:13;;;;;;;9.18;4.38;;;;;;;-144.85;100.00;61331.59;5096270;28;31756;-73
2023/05/30 07:21:40;;;;;;;14.10;4.65;;;;;;;-144.85;100.00;61331.59;5096888;28;31163;-73
2023/05/30 07:24:07;;;;;;;15.30;4.72;;;;;;;-144.85;100.00;61331.59;5078229;28;32311;-73
2023/05/30 07:26:35;;;;;;;9.77;4.43;;;;;;;-144.85;100.00;61331.59;5096774;28;32242;-73
2023/05/30 07:29:02;;;;;;;10.45;4.32;;;;;;;-144.85;100.00;61331.59;5096502;28;31773;-73
2023/05/30 07:31:30;;;;;;;12.27;4.50;;;;;;;-144.85;100.00;61331.59;5096458;28;32456;-73
2023/05/30 07:33:57;;;;;;;13.63;4.72;;;;;;;-144.85;100.00;61331.59;5095920;28;32229;-73
2023/05/30 07:36:24;;;;;;;13.70;4.25;;;;;;;-144.85;100.00;61331.59;5078541;28;32051;-73
2023/05/30 07:38:52;;;;;;;13.85;4.53;;;;;;;-144.85;100.00;61331.59;5096449;28;32106;-74
2023/05/30 07:41:20;;;;;;;10.50;4.90;;;;;;;-144.85;100.00;61331.59;5096812;28;31042;-73
2023/05/30 07:43:47;;;;;;;8.98;3.97;;;;;;;-144.85;100.00;61331.59;5076920;28;31383;-73
2023/05/30 07:46:14;;;;;;;13.23;3.80;;;;;;;-144.85;100.00;61331.59;5069562;28;30870;-73
2023/05/30 07:48:41;;;;;;;10.45;4.05;;;;;;;-144.85;100.00;61331.59;5099973;28;32195;-73
2023/05/30 07:51:10;;;;;;;11.43;4.30;;;;;;;-144.85;100.00;61331.59;5099769;28;31453;-73
2023/05/30 07:53:38;;;;;;;8.25;3.65;;;;;;;-144.85;100.00;61331.59;5100009;28;33204;-73
2023/05/30 07:56:05;;;;;;;12.55;3.90;;;;;;;-144.85;100.00;61331.59;5082557;28;30910;-73
2023/05/30 07:58:32;;;;;;;11.85;4.20;;;;;;;-144.85;100.00;61331.59;5062812;28;30606;-73
2023/05/30 08:01:00;;;;;;;9.35;3.75;;;;;;;-144.85;100.00;61331.59;5099237;28;32334;-73
2023/05/30 08:03:27;;;;;;;9.52;3.38;;;;;;;-144.85;100.00;61331.59;5083901;28;32647;-73
2023/05/30 08:05:54;;;;;;;11.38;4.10;;;;;;;-144.85;100.00;61331.59;5092242;28;31232;-74
2023/05/30 08:08:21;;;;;;;9.70;3.83;;;;;;;-144.85;100.00;61331.59;5099070;28;31670;-73
2023/05/30 08:10:49;;;;;;;9.27;3.70;;;;;;;-144.85;100.00;61331.59;5096973;28;31464;-73
2023/05/30 08:13:18;;;;;;;9.10;4.20;;;;;;;-144.85;100.00;61331.59;5095618;28;32562;-73
2023/05/30 08:15:45;;;;;;;7.53;3.72;;;;;;;-144.85;100.00;61331.59;5098998;28;32716;-73
2023/05/30 08:18:14;;;;;;;14.50;4.43;;;;;;;-144.85;100.00;61331.59;5081241;28;32209;-73
2023/05/30 08:20:41;;;;;;;9.55;4.15;;;;;;;-144.85;100.00;61331.59;5098585;28;31192;-73
2023/05/30 08:23:09;;;;;;;11.68;4.30;;;;;;;-144.85;100.00;61331.59;5070426;28;32488;-73
2023/05/30 08:25:42;;;;;;;8.77;3.90;;;;;;;-144.85;100.00;61331.59;5098798;28;33069;-74
2023/05/30 08:28:12;;;;;;;9.55;4.07;;;;;;;-144.85;100.00;61331.59;5091800;28;31565;-74
2023/05/30 08:30:44;;;;;;;9.95;4.07;;;;;;;-144.85;100.00;61331.59;5080801;28;31228;-73
2023/05/30 08:33:13;;;;;;;11.27;4.47;;;;;;;-144.85;100.00;61331.59;5095885;28;33065;-73
2023/05/30 08:35:40;;;;;;;11.10;4.05;;;;;;;-144.85;100.00;61331.59;5099010;28;32377;-73
2023/05/30 08:38:07;;;;;;;13.88;4.13;;;;;;;-144.85;100.00;61331.59;5080525;28;31812;-72
2023/05/30 08:40:40;;;;;;;12.70;4.40;;;;;;;-144.85;100.00;61331.59;5081441;28;32064;-73
2023/05/30 08:43:07;;;;;;;13.70;4.32;;;;;;;-144.85;100.00;61331.59;5091245;28;32314;-73
2023/05/30 08:45:34;;;;;;;13.43;4.35;;;;;;;-144.85;100.00;61331.59;5071506;28;31638;-73
2023/05/30 08:48:02;;;;;;;12.50;4.20;;;;;;;-144.85;100.00;61331.59;5077433;28;32550;-73
2023/05/30 08:50:31;;;;;;;9.85;4.30;;;;;;;-144.85;100.00;61331.59;5089098;28;31339;-72
2023/05/30 08:53:07;;;;;;;10.75;4.18;;;;;;;-144.85;100.00;61331.59;5095341;28;33333;-72
2023/05/30 08:55:41;;;;;;;8.95;4.55;;;;;;;-144.85;100.00;61331.59;5096545;28;32369;-72
2023/05/30 08:58:19;;;;;;;12.15;4.82;;;;;;;-144.85;100.00;61331.59;5090644;28;30641;-73
2023/05/30 09:00:48;;;;;;;11.70;4.53;;;;;;;-144.85;100.00;61331.59;5077169;28;31162;-73
2023/05/30 09:03:17;;;;;;;11.27;4.55;;;;;;;-144.85;100.00;61331.59;5080073;28;34021;-73
2023/05/30 09:05:46;;;;;;;8.48;4.47;;;;;;;-144.85;100.00;61331.59;5082971;28;32168;-72
2023/05/30 09:08:13;;;;;;;12.05;4.30;;;;;;;-144.85;100.00;61331.59;5079669;28;31984;-72
2023/05/30 09:10:47;;;;;;;11.00;4.53;;;;;;;-144.85;100.00;61331.59;5067960;28;30641;-72
2023/05/30 09:13:15;;;;;;;12.23;4.53;;;;;;;-144.85;100.00;61331.59;5111257;28;33200;-73
2023/05/30 09:15:44;;;;;;;8.43;4.65;;;;;;;-144.85;100.00;61331.59;5099274;28;31967;-73
2023/05/30 09:18:11;;;;;;;9.68;4.50;;;;;;;-144.85;100.00;61331.59;5066758;28;32591;-73
2023/05/30 09:20:39;;;;;;;11.32;4.78;;;;;;;-144.85;100.00;61331.59;5080145;28;32381;-73
2023/05/30 09:23:06;;;;;;;11.45;4.38;;;;;;;-144.85;100.00;61331.59;5097379;28;32258;-72
2023/05/30 09:25:45;;;;;;;11.27;4.53;;;;;;;-144.85;100.00;61331.59;5096448;28;31114;-73
2023/05/30 09:28:13;;;;;;;10.85;4.10;;;;;;;-144.85;100.00;61331.59;5097728;28;32573;-72
2023/05/30 09:30:55;;;;;;;8.98;4.68;;;;;;;-144.85;100.00;61331.59;5098580;28;31471;-72
2023/05/30 09:33:50;;;;;;;11.85;4.90;;;;;;;-144.85;100.00;61331.59;5077724;28;33256;-73
2023/05/30 09:36:24;;;;;;;10.90;4.57;;;;;;;-144.85;100.00;61331.59;5079816;28;32301;-73
2023/05/30 09:38:56;;;;;;;9.70;4.60;;;;;;;-144.85;100.00;61331.59;5098243;28;32078;-73
2023/05/30 09:41:25;;;;;;;13.05;4.65;;;;;;;-144.85;100.00;61331.59;5079880;28;30574;-73
2023/05/30 09:43:54;;;;;;;10.13;4.82;;;;;;;-144.85;100.00;61331.59;5079509;28;32608;-73
2023/05/30 09:46:23;;;;;;;10.50;5.03;;;;;;;-144.85;100.00;61331.59;5098223;28;31809;-73
2023/05/30 09:48:51;;;;;;;12.27;5.50;;;;;;;-144.85;100.00;61331.59;5096806;28;31673;-72
2023/05/30 09:51:25;;;;;;;12.77;5.00;;;;;;;-144.85;100.00;61331.59;5079444;28;32466;-73
2023/05/30 09:54:02;;;;;;;9.27;4.50;;;;;;;-144.85;100.00;61331.59;5095175;28;32475;-73
2023/05/30 09:56:40;;;;;;;11.45;4.95;;;;;;;-144.85;100.00;61331.59;5079322;28;31935;-73
2023/05/30 09:59:08;;;;;;;9.38;4.57;;;;;;;-144.85;100.00;61331.59;5094922;28;31448;-73
2023/05/30 10:01:37;;;;;;;10.60;5.07;;;;;;;-144.85;100.00;61331.59;5079334;28;31817;-74
2023/05/30 10:04:17;;;;;;;11.10;4.82;;;;;;;-144.85;100.00;61331.59;5097732;28;33060;-74
2023/05/30 10:06:52;;;;;;;11.20;5.30;;;;;;;-144.85;100.00;61331.59;5094858;28;32079;-74
2023/05/30 10:09:21;;;;;;;7.53;4.45;;;;;;;-144.85;100.00;61331.59;5076622;28;31432;-74
2023/05/30 10:11:50;;;;;;;8.43;4.50;;;;;;;-144.85;100.00;61331.59;5078874;28;30389;-74
2023/05/30 10:14:17;;;;;;;9.23;4.80;;;;;;;-144.85;100.00;61331.59;5093489;28;33396;-74
2023/05/30 10:16:53;;;;;;;10.00;5.10;;;;;;;-144.85;100.00;61331.59;5079859;28;32191;-74
2023/05/30 10:19:51;;;;;;;13.10;5.40;;;;;;;-144.85;100.00;61331.59;5086330;28;33174;-74
2023/05/30 10:22:20;;;;;;;8.48;4.68;;;;;;;-144.85;100.00;61331.59;5084448;28;32723;-74
2023/05/30 10:24:49;;;;;;;13.05;5.10;;;;;;;-144.85;100.00;61331.59;5079211;28;32928;-74
2023/05/30 10:27:20;;;;;;;13.52;5.10;;;;;;;-144.85;100.00;61331.59;5079017;28;30841;-74
2023/05/30 10:30:03;;;;;;;10.05;4.95;;;;;;;-144.85;100.00;61331.59;5088153;28;31793;-74
2023/05/30 10:32:33;;;;;;;10.05;5.20;;;;;;;-144.85;100.00;61331.59;5095949;28;32345;-74
2023/05/30 10:35:11;;;;;;;10.25;5.15;;;;;;;-144.85;100.00;61331.59;5078472;28;33134;-74
2023/05/30 10:37:39;;;;;;;9.15;5.00;;;;;;;-144.85;100.00;61331.59;5096105;28;32915;-74
2023/05/30 10:40:25;;;;;;;11.35;4.65;;;;;;;-144.85;100.00;61331.59;5097666;28;32762;-74
2023/05/30 10:43:03;;;;;;;9.18;4.93;;;;;;;-144.85;100.00;61331.59;5094664;28;31532;-74
2023/05/30 10:45:43;;;;;;;9.27;4.57;;;;;;;-144.85;100.00;61331.59;5077312;28;32235;-74
2023/05/30 10:48:38;;;;;;;10.32;4.65;;;;;;;-144.85;100.00;61331.59;5073280;28;31941;-74
2023/05/30 10:51:05;;;;;;;10.77;5.53;;;;;;;-144.85;100.00;61331.59;5107371;28;31863;-74
2023/05/30 10:53:40;;;;;;;11.05;5.00;;;;;;;-144.85;100.00;61331.59;5097352;28;32378;-74
2023/05/30 10:56:26;;;;;;;9.90;5.13;;;;;;;-144.85;100.00;61331.59;5094087;28;33417;-75
2023/05/30 10:58:53;;;;;;;;;;;;;;;-144.85;100.00;61331.59;5064071;28;33073;-74
2023/05/30 11:01:25;;;;;;;10.07;4.90;;;;;;;-144.85;100.00;61331.59;5097258;28;31802;-74
2023/05/30 11:04:05;;;;;;;8.88;4.45;;;;;;;-144.85;100.00;61331.59;5093796;28;31294;-74
2023/05/30 11:06:35;;;;;;;11.35;5.10;;;;;;;-144.85;100.00;61331.59;5078152;28;32464;-74
2023/05/30 11:09:10;;;;;;;15.75;4.82;;;;;;;-144.85;100.00;61331.59;5097013;28;32927;-74
2023/05/30 11:11:53;;;;;;;9.93;4.60;;;;;;;-144.85;100.00;61331.59;5095691;28;31926;-74
2023/05/30 11:14:32;;;;;;;10.73;4.93;;;;;;;-144.85;100.00;61331.59;5081385;28;32392;-74
2023/05/30 11:17:00;;;;;;;9.73;4.82;;;;;;;-144.85;100.00;61331.59;5076116;28;33462;-74